Terminal Aerodrome Forecast
Issued by NWS

Home | Current Version | Previous Version | Text Only | Print | Product List | Glossary On
Versions: 1 2 3 4 5 6 7 8 9 10 11 12 13 14 15
000
FTUS41 KBTV 180310 AAA
TAFRUT
TAF AMD
KRUT 180310Z 1803/1824 15010G22KT 6SM -RASN SCT015 OVC040
      TEMPO 1803/1805 2SM -SN BR BKN015
     FM180500 15011G22KT 1SM -SN BR OVC015
     FM181600 14007KT P6SM VCSH OVC025=

USA.gov is the U.S. government's official web portal to all federal, state and local government web resources and services.